Time;durP1;ratioP1;P1;durP2;ratioP2;P2;SDS_P1;SDS_P2;PMS_P1;PMS_P2;Temp;Humidity;BMP_temperature;BMP_pressure;BME280_temperature;BME280_humidity;BME280_pressure;Samples;Min_cycle;Max_cycle;Signal;HPM_P1;HPM_P2
2022/08/08 00:00:09;;;;;;;10.20;9.50;;;;;;;24.41;89.37;99235.03;5106583;28;20266;-63
2022/08/08 00:02:45;;;;;;;9.95;9.05;;;;;;;24.34;89.96;99230.44;5101006;28;20195;-62
2022/08/08 00:05:19;;;;;;;10.02;9.32;;;;;;;24.31;89.77;99220.94;5100828;28;20640;-63
2022/08/08 00:07:52;;;;;;;10.63;9.75;;;;;;;24.36;90.05;99239.09;5092988;28;20203;-63
2022/08/08 00:10:26;;;;;;;10.38;9.68;;;;;;;24.39;89.62;99239.63;5092128;28;20200;-63
2022/08/08 00:13:04;;;;;;;10.13;9.35;;;;;;;24.31;90.05;99234.19;5092331;28;20597;-63
2022/08/08 00:15:39;;;;;;;11.30;9.68;;;;;;;24.34;89.98;99235.72;5093957;28;20298;-62
2022/08/08 00:18:13;;;;;;;10.73;9.73;;;;;;;24.32;90.03;99235.88;5092032;28;20205;-62
2022/08/08 00:20:45;;;;;;;11.23;10.05;;;;;;;24.29;90.03;99230.84;5092124;28;20691;-57
2022/08/08 00:23:16;;;;;;;11.07;9.90;;;;;;;24.26;90.99;99233.78;5091982;28;20287;-58
2022/08/08 00:25:49;;;;;;;10.55;9.80;;;;;;;24.18;91.74;99233.56;5091760;28;20633;-58
2022/08/08 00:28:19;;;;;;;11.45;10.38;;;;;;;24.20;91.74;99224.50;5091797;28;20206;-61
2022/08/08 00:30:53;;;;;;;10.80;9.73;;;;;;;24.14;92.42;99224.22;5091938;28;20198;-62
2022/08/08 00:33:24;;;;;;;12.95;11.10;;;;;;;24.05;93.17;99219.72;5091746;28;20196;-65
2022/08/08 00:36:01;;;;;;;12.02;10.80;;;;;;;24.00;93.98;99214.00;5091289;28;20202;-60
2022/08/08 00:38:36;;;;;;;11.73;10.68;;;;;;;23.91;94.34;99220.97;5091793;28;20199;-59
2022/08/08 00:41:37;;;;;;;12.00;11.02;;;;;;;23.85;95.44;99225.00;5091341;28;20238;-58
2022/08/08 00:44:33;;;;;;;12.30;11.20;;;;;;;23.76;96.12;99219.66;5091673;28;20205;-58
2022/08/08 00:47:47;;;;;;;12.20;11.20;;;;;;;23.77;96.18;99218.69;5091419;28;20285;-58
2022/08/08 00:50:49;;;;;;;12.73;11.65;;;;;;;23.74;96.35;99219.78;5028944;28;20749;-61
2022/08/08 00:53:27;;;;;;;12.82;11.85;;;;;;;23.76;96.74;99236.41;5091584;28;20583;-58
2022/08/08 00:56:20;;;;;;;15.25;11.68;;;;;;;23.69;97.46;99235.28;5091371;28;20202;-62
2022/08/08 00:59:22;;;;;;;13.52;12.32;;;;;;;23.58;98.61;99247.78;5091218;28;20227;-60
2022/08/08 01:02:00;;;;;;;13.63;12.40;;;;;;;23.56;98.81;99257.66;5091185;28;20278;-60
2022/08/08 01:05:04;;;;;;;12.95;11.57;;;;;;;23.60;99.11;99254.59;5091316;28;20190;-58
2022/08/08 01:08:11;;;;;;;13.55;12.35;;;;;;;23.56;99.35;99255.03;5091363;28;20202;-59
2022/08/08 01:11:06;;;;;;;13.15;11.90;;;;;;;23.58;99.50;99259.22;5082793;28;20191;-59
2022/08/08 01:14:02;;;;;;;13.85;12.68;;;;;;;23.53;99.83;99264.06;5090911;28;20282;-59
2022/08/08 01:16:53;;;;;;;14.00;12.70;;;;;;;23.54;99.92;99252.50;5091101;28;20214;-59
2022/08/08 01:19:58;;;;;;;12.70;11.60;;;;;;;23.48;100.00;99250.31;5090762;28;20694;-60
2022/08/08 01:23:13;;;;;;;13.77;12.25;;;;;;;23.42;100.00;99259.66;5091037;28;20199;-59
2022/08/08 01:26:27;;;;;;;13.50;12.30;;;;;;;23.32;100.00;99248.19;5063214;28;20201;-60
2022/08/08 01:29:26;;;;;;;13.48;12.23;;;;;;;23.36;100.00;99254.91;5064706;28;20203;-59
2022/08/08 01:32:35;;;;;;;16.20;13.18;;;;;;;23.35;100.00;99258.50;5064466;28;20198;-59
2022/08/08 01:35:28;;;;;;;13.70;12.38;;;;;;;23.31;100.00;99251.78;5090671;28;20198;-59
2022/08/08 01:38:30;;;;;;;14.40;13.20;;;;;;;23.42;100.00;99256.16;5090543;28;20659;-58
2022/08/08 01:41:05;;;;;;;13.20;12.10;;;;;;;23.41;100.00;99246.53;5090261;28;20305;-58
2022/08/08 01:43:39;;;;;;;14.02;12.73;;;;;;;23.38;100.00;99249.44;5090549;28;20197;-59
2022/08/08 01:46:27;;;;;;;13.18;12.15;;;;;;;23.33;100.00;99264.91;5090252;28;20194;-59
2022/08/08 01:49:07;;;;;;;14.73;13.00;;;;;;;23.02;100.00;99253.44;5089436;28;20195;-60
2022/08/08 01:52:00;;;;;;;14.07;12.90;;;;;;;23.03;100.00;99263.88;5090193;28;20202;-59
2022/08/08 01:54:56;;;;;;;14.00;12.77;;;;;;;22.98;100.00;99260.78;5090262;28;20195;-59
2022/08/08 01:57:33;;;;;;;14.40;13.20;;;;;;;22.87;100.00;99268.78;5089857;28;20282;-63
2022/08/08 02:00:20;;;;;;;13.50;12.40;;;;;;;22.76;100.00;99264.38;5090483;28;20321;-59
2022/08/08 02:03:16;;;;;;;14.25;12.55;;;;;;;22.63;100.00;99252.25;5090115;28;20282;-60
2022/08/08 02:05:57;;;;;;;12.80;11.82;;;;;;;22.74;100.00;99273.38;5089942;28;20210;-60
2022/08/08 02:08:39;;;;;;;14.30;12.80;;;;;;;22.72;100.00;99285.88;5090241;28;20727;-58
2022/08/08 02:11:14;;;;;;;14.73;13.32;;;;;;;22.69;100.00;99278.19;5090204;28;20227;-60
2022/08/08 02:13:50;;;;;;;14.45;13.15;;;;;;;22.59;100.00;99274.63;5090098;28;20272;-58
2022/08/08 02:16:26;;;;;;;15.25;13.77;;;;;;;22.62;100.00;99269.94;5089791;28;20685;-60
2022/08/08 02:19:00;;;;;;;14.35;13.10;;;;;;;22.61;100.00;99257.66;5089739;28;20241;-58
2022/08/08 02:24:24;;;;;;;14.80;13.40;;;;;;;22.54;100.00;99247.72;5089853;28;20198;-60
2022/08/08 02:27:02;;;;;;;14.05;12.95;;;;;;;22.61;100.00;99254.19;5089935;28;20660;-59
2022/08/08 02:29:56;;;;;;;14.32;12.93;;;;;;;22.58;100.00;99257.91;5089781;28;20188;-60
2022/08/08 02:33:05;;;;;;;13.65;12.13;;;;;;;22.58;100.00;99259.72;5089644;28;20195;-60
2022/08/08 02:35:53;;;;;;;15.52;12.20;;;;;;;22.48;100.00;99249.06;5089473;28;20202;-59
2022/08/08 02:38:58;;;;;;;13.13;12.02;;;;;;;22.52;100.00;99258.44;5089764;28;20207;-59
2022/08/08 02:41:42;;;;;;;14.63;13.00;;;;;;;22.52;100.00;99252.31;5089462;28;20235;-59
2022/08/08 02:44:43;;;;;;;13.50;12.27;;;;;;;22.50;100.00;99255.06;5097021;28;20202;-57
2022/08/08 02:47:53;;;;;;;14.15;12.85;;;;;;;22.52;100.00;99263.72;5096790;28;20197;-58
2022/08/08 02:51:02;;;;;;;14.30;13.10;;;;;;;22.58;100.00;99262.38;5099460;28;20237;-63
2022/08/08 02:53:48;;;;;;;13.20;11.93;;;;;;;22.58;100.00;99268.50;5062665;28;20195;-62
2022/08/08 02:56:59;;;;;;;12.40;11.35;;;;;;;22.64;100.00;99268.00;5098636;28;20203;-59
2022/08/08 03:00:02;;;;;;;13.70;12.30;;;;;;;22.63;100.00;99265.47;5071475;28;20596;-60
2022/08/08 03:03:12;;;;;;;12.57;11.52;;;;;;;22.64;100.00;99268.00;5101879;28;20241;-59
2022/08/08 03:06:16;;;;;;;12.63;11.52;;;;;;;22.59;100.00;99267.53;5097088;28;20315;-56
2022/08/08 03:09:36;;;;;;;13.15;11.88;;;;;;;22.59;100.00;99267.53;5092234;28;20312;-59
2022/08/08 03:12:42;;;;;;;12.88;11.77;;;;;;;22.48;100.00;99272.03;5092959;28;20223;-59
2022/08/08 03:15:32;;;;;;;13.55;12.23;;;;;;;22.43;100.00;99265.31;5093576;28;20229;-55
2022/08/08 03:18:06;;;;;;;12.60;11.68;;;;;;;22.40;100.00;99270.84;5106180;28;20226;-55
2022/08/08 03:20:46;;;;;;;13.40;12.30;;;;;;;22.44;100.00;99276.75;5112109;28;20261;-54
2022/08/08 03:23:16;;;;;;;13.20;11.90;;;;;;;22.43;100.00;99270.63;5100086;28;20589;-54
2022/08/08 03:25:45;;;;;;;14.50;13.00;;;;;;;22.42;100.00;99284.81;5103634;28;20222;-55
2022/08/08 03:28:17;;;;;;;13.60;12.40;;;;;;;22.42;100.00;99284.81;5113296;27;20222;-54
2022/08/08 03:30:45;;;;;;;13.05;11.95;;;;;;;22.40;100.00;99276.16;5112732;28;20222;-56
2022/08/08 03:33:17;;;;;;;14.00;12.90;;;;;;;22.45;100.00;99289.84;5112655;28;20222;-55
2022/08/08 03:35:46;;;;;;;13.23;11.90;;;;;;;22.37;100.00;99286.97;5112993;28;20674;-59
2022/08/08 03:38:15;;;;;;;14.13;12.82;;;;;;;22.49;100.00;99300.16;5112643;28;20218;-58
2022/08/08 03:40:50;;;;;;;14.20;12.85;;;;;;;22.53;100.00;99301.59;5107437;28;20583;-55
2022/08/08 03:43:17;;;;;;;13.10;12.00;;;;;;;22.40;100.00;99305.22;5092490;28;20604;-55
2022/08/08 03:45:44;;;;;;;14.40;13.13;;;;;;;22.32;100.00;99299.72;5095732;28;20223;-55
2022/08/08 03:48:11;;;;;;;13.60;12.38;;;;;;;22.30;100.00;99299.00;5092399;28;20574;-56
2022/08/08 03:50:45;;;;;;;13.20;12.20;;;;;;;22.37;100.00;99304.63;5092153;28;20236;-56
2022/08/08 03:53:16;;;;;;;13.55;12.30;;;;;;;22.41;100.00;99311.38;5091805;28;20220;-56
2022/08/08 03:55:44;;;;;;;18.10;12.68;;;;;;;22.49;100.00;99316.03;5091974;28;20225;-56
2022/08/08 03:58:18;;;;;;;13.32;12.23;;;;;;;22.67;100.00;99315.38;5094131;28;20271;-60
2022/08/08 04:00:51;;;;;;;13.23;12.13;;;;;;;22.85;100.00;99317.50;5101904;28;20227;-59
2022/08/08 04:03:18;;;;;;;12.13;11.15;;;;;;;23.29;98.97;99322.59;5097603;28;20230;-60
2022/08/08 04:05:47;;;;;;;12.20;11.10;;;;;;;24.01;94.60;99325.22;5097667;28;20249;-60
2022/08/08 04:08:19;;;;;;;12.88;11.55;;;;;;;25.00;87.54;99321.69;5100886;28;20202;-61
2022/08/08 04:10:48;;;;;;;12.02;10.95;;;;;;;26.11;81.24;99326.34;5099249;28;20186;-60
2022/08/08 04:13:15;;;;;;;10.98;10.10;;;;;;;27.29;73.89;99333.28;5099649;28;20199;-61
2022/08/08 04:15:42;;;;;;;12.43;11.40;;;;;;;27.74;70.15;99342.94;5102970;28;20201;-61
2022/08/08 04:18:10;;;;;;;12.23;11.13;;;;;;;28.48;66.35;99339.63;5099757;28;20202;-61
2022/08/08 04:20:37;;;;;;;11.20;10.25;;;;;;;29.16;63.29;99344.75;5095260;28;20241;-61
2022/08/08 04:23:04;;;;;;;10.85;9.75;;;;;;;30.14;58.56;99346.31;5100026;28;20287;-60
2022/08/08 04:25:33;;;;;;;11.23;10.45;;;;;;;30.64;56.52;99339.75;5105232;28;20592;-62
2022/08/08 04:28:00;;;;;;;10.30;9.60;;;;;;;31.81;52.96;99352.75;5112348;28;20194;-61
2022/08/08 04:30:27;;;;;;;10.05;9.35;;;;;;;32.86;48.85;99353.28;5112271;28;20614;-62
2022/08/08 04:32:54;;;;;;;10.00;9.20;;;;;;;33.79;46.30;99352.28;5112092;28;20600;-59
2022/08/08 04:35:22;;;;;;;10.48;9.52;;;;;;;34.51;44.00;99355.38;5106518;28;20201;-56
2022/08/08 04:37:49;;;;;;;10.05;9.38;;;;;;;35.32;42.36;99362.66;5090766;28;20187;-55
2022/08/08 04:40:16;;;;;;;10.55;8.90;;;;;;;35.88;40.23;99369.28;5095378;28;20223;-56
2022/08/08 04:42:44;;;;;;;10.43;9.52;;;;;;;36.08;39.66;99374.63;5106909;28;20222;-55
2022/08/08 04:45:11;;;;;;;8.40;7.97;;;;;;;36.48;38.75;99372.63;5111158;28;20201;-56
2022/08/08 04:47:38;;;;;;;9.20;8.50;;;;;;;37.12;37.28;99384.38;5110819;28;20687;-58
2022/08/08 04:50:06;;;;;;;10.30;9.45;;;;;;;37.55;36.24;99381.78;5111362;28;20202;-59
2022/08/08 04:52:33;;;;;;;12.95;9.02;;;;;;;37.30;36.71;99379.91;5097609;28;20203;-59
2022/08/08 04:55:01;;;;;;;9.10;8.30;;;;;;;37.27;36.42;99374.91;5090129;28;20198;-59
2022/08/08 04:57:28;;;;;;;9.23;8.32;;;;;;;37.16;36.87;99383.75;5091150;28;20201;-58
2022/08/08 04:59:56;;;;;;;8.63;8.02;;;;;;;37.66;36.18;99389.22;5093400;28;20650;-59
2022/08/08 05:02:23;;;;;;;9.05;8.10;;;;;;;37.67;35.92;99390.88;5110676;28;20225;-58
2022/08/08 05:04:50;;;;;;;8.48;7.88;;;;;;;38.13;34.76;99388.56;5104954;28;20296;-58
2022/08/08 05:07:17;;;;;;;9.95;8.27;;;;;;;38.91;33.94;99404.09;5111238;28;20580;-59
2022/08/08 05:09:44;;;;;;;8.90;8.00;;;;;;;39.37;33.08;99397.16;5110808;28;20297;-58
2022/08/08 05:12:11;;;;;;;8.07;7.38;;;;;;;40.09;32.28;99398.63;5092698;28;20236;-58
2022/08/08 05:14:38;;;;;;;14.98;9.05;;;;;;;40.69;30.96;99395.56;5090717;28;20658;-58
2022/08/08 05:17:06;;;;;;;9.45;8.32;;;;;;;39.92;32.20;99395.84;5090464;28;20305;-58
2022/08/08 05:19:34;;;;;;;10.90;8.98;;;;;;;39.95;31.52;99399.16;5092575;28;20230;-58
2022/08/08 05:22:02;;;;;;;9.05;8.18;;;;;;;39.92;31.86;99395.84;5090608;28;20210;-58
2022/08/08 05:24:29;;;;;;;12.07;11.02;;;;;;;40.60;30.72;99400.56;5089410;28;20675;-57
2022/08/08 05:26:56;;;;;;;12.65;11.18;;;;;;;40.88;30.42;99410.66;5088763;28;20218;-58
2022/08/08 05:29:22;;;;;;;9.02;7.80;;;;;;;40.79;30.66;99398.50;5090219;28;20250;-58
2022/08/08 05:31:49;;;;;;;11.07;9.77;;;;;;;41.27;30.02;99408.94;5089939;28;20218;-58
2022/08/08 05:34:25;;;;;;;10.52;9.57;;;;;;;41.38;29.40;99399.03;5089881;28;20263;-57
2022/08/08 05:36:54;;;;;;;13.20;10.23;;;;;;;40.77;30.31;99397.91;5099645;28;20705;-57
2022/08/08 05:39:23;;;;;;;7.75;7.18;;;;;;;41.03;29.88;99399.22;5092999;28;20633;-58
2022/08/08 05:41:52;;;;;;;7.95;7.32;;;;;;;41.34;29.68;99409.59;5095216;28;20659;-57
2022/08/08 05:44:27;;;;;;;13.05;11.85;;;;;;;41.39;29.55;99400.69;5103644;28;20194;-59
2022/08/08 05:46:55;;;;;;;9.77;8.98;;;;;;;41.51;29.16;99414.25;5109176;28;20674;-58
2022/08/08 05:49:24;;;;;;;9.45;8.65;;;;;;;42.11;28.59;99419.00;5100836;28;20695;-57
2022/08/08 05:51:51;;;;;;;7.93;7.20;;;;;;;42.08;28.82;99408.63;5101964;28;20187;-58
2022/08/08 05:54:19;;;;;;;7.57;7.00;;;;;;;41.99;27.91;99410.97;5099969;28;20646;-58
2022/08/08 05:56:46;;;;;;;10.73;7.68;;;;;;;42.18;28.37;99420.50;5100848;28;20197;-57
2022/08/08 05:59:18;;;;;;;23.30;21.10;;;;;;;42.08;28.65;99422.25;5107962;28;20206;-57
2022/08/08 06:01:52;;;;;;;9.32;8.52;;;;;;;42.01;28.14;99425.16;5099866;28;20221;-60
2022/08/08 06:04:25;;;;;;;10.43;9.40;;;;;;;41.64;28.55;99425.69;5090207;28;20644;-58
2022/08/08 06:06:53;;;;;;;9.68;7.25;;;;;;;41.88;28.11;99418.09;5090010;28;20198;-58
2022/08/08 06:09:27;;;;;;;7.50;6.97;;;;;;;41.54;29.38;99421.97;5099022;28;20198;-57
2022/08/08 06:11:59;;;;;;;7.82;7.20;;;;;;;41.65;28.86;99430.03;5098730;28;20186;-58
2022/08/08 06:14:28;;;;;;;9.05;7.88;;;;;;;41.41;29.23;99425.81;5098393;28;20194;-58
2022/08/08 06:16:59;;;;;;;7.35;7.00;;;;;;;41.65;28.84;99432.75;5099871;28;20193;-59
2022/08/08 06:19:28;;;;;;;7.65;7.00;;;;;;;41.36;28.56;99417.53;5100585;28;20205;-58
2022/08/08 06:21:56;;;;;;;9.75;9.13;;;;;;;41.66;27.90;99428.13;5099084;28;20715;-58
2022/08/08 06:24:23;;;;;;;10.68;9.65;;;;;;;40.87;29.07;99430.78;5098841;28;20703;-58
2022/08/08 06:26:56;;;;;;;10.43;6.97;;;;;;;40.84;28.55;99427.72;5098604;28;20217;-59
2022/08/08 06:29:29;;;;;;;7.88;7.05;;;;;;;41.26;27.89;99430.97;5098624;28;20193;-58
2022/08/08 06:32:01;;;;;;;7.47;6.90;;;;;;;41.04;28.36;99413.66;5099324;28;20187;-58
2022/08/08 06:34:36;;;;;;;7.40;7.00;;;;;;;41.14;27.78;99436.50;5097774;28;20190;-58
2022/08/08 06:37:04;;;;;;;10.48;7.38;;;;;;;40.99;28.58;99431.56;5098464;28;20200;-63
2022/08/08 06:39:32;;;;;;;12.48;11.68;;;;;;;41.09;28.29;99447.25;5094665;28;20190;-58
2022/08/08 06:42:01;;;;;;;9.55;8.48;;;;;;;41.14;28.76;99432.94;5103061;28;20695;-57
2022/08/08 06:44:29;;;;;;;15.70;11.60;;;;;;;41.22;28.30;99438.81;5107636;28;20193;-57
2022/08/08 06:46:56;;;;;;;11.13;9.02;;;;;;;40.82;28.68;99433.41;5110316;28;20292;-58
2022/08/08 06:49:23;;;;;;;9.80;8.65;;;;;;;40.67;28.78;99430.34;5109873;28;20194;-58
2022/08/08 06:51:52;;;;;;;14.75;8.88;;;;;;;41.07;28.69;99437.69;5110012;28;20671;-58
2022/08/08 06:54:21;;;;;;;9.20;8.38;;;;;;;40.67;28.78;99433.06;5102527;28;20200;-58
2022/08/08 06:56:50;;;;;;;9.95;8.95;;;;;;;40.71;29.44;99431.56;5088474;28;20207;-61
2022/08/08 06:59:17;;;;;;;9.55;8.75;;;;;;;41.54;28.40;99441.03;5088551;28;20198;-59
2022/08/08 07:01:46;;;;;;;11.82;10.65;;;;;;;41.98;27.77;99440.13;5088452;28;20313;-57
2022/08/08 07:04:20;;;;;;;17.23;10.18;;;;;;;41.64;27.95;99446.66;5088775;28;20198;-58
2022/08/08 07:06:54;;;;;;;8.65;7.50;;;;;;;41.75;28.23;99444.91;5091191;28;20201;-62
2022/08/08 07:09:25;;;;;;;7.82;7.20;;;;;;;41.57;27.35;99443.25;5091016;28;20216;-60
2022/08/08 07:11:54;;;;;;;8.48;7.57;;;;;;;41.32;27.92;99438.97;5088211;28;20202;-62
2022/08/08 07:14:27;;;;;;;9.70;7.28;;;;;;;41.23;27.72;99445.09;5091136;28;20640;-60
2022/08/08 07:17:03;;;;;;;8.02;7.22;;;;;;;41.42;27.89;99449.25;5088589;28;20707;-59
2022/08/08 07:19:37;;;;;;;8.45;7.22;;;;;;;41.29;28.12;99438.66;5088241;28;20205;-58
2022/08/08 07:22:07;;;;;;;8.60;7.90;;;;;;;41.39;27.92;99440.75;5088279;28;20222;-59
2022/08/08 07:24:39;;;;;;;11.90;7.88;;;;;;;41.97;27.12;99446.66;5088151;28;20234;-59
2022/08/08 07:27:10;;;;;;;7.20;6.50;;;;;;;41.75;26.63;99436.75;5088395;28;20191;-57
2022/08/08 07:29:37;;;;;;;6.28;5.97;;;;;;;41.94;25.92;99441.66;5088251;28;20190;-58
2022/08/08 07:32:04;;;;;;;6.72;6.13;;;;;;;41.23;26.51;99443.19;5088124;28;20202;-58
2022/08/08 07:34:33;;;;;;;5.90;5.50;;;;;;;41.46;25.82;99446.84;5088010;28;20199;-58
2022/08/08 07:37:02;;;;;;;6.50;6.00;;;;;;;41.79;25.49;99435.16;5088067;28;20285;-59
2022/08/08 07:39:31;;;;;;;6.78;5.35;;;;;;;42.64;25.25;99445.66;5088085;28;20195;-58
2022/08/08 07:41:59;;;;;;;6.10;5.13;;;;;;;43.67;23.74;99444.59;5087949;28;20333;-58
2022/08/08 07:44:28;;;;;;;6.32;5.80;;;;;;;44.27;23.06;99451.56;5088109;28;20195;-59
2022/08/08 07:46:55;;;;;;;7.60;6.90;;;;;;;43.91;22.50;99441.47;5089591;28;20209;-58
2022/08/08 07:49:21;;;;;;;9.75;8.75;;;;;;;44.16;22.66;99442.47;5091658;28;20316;-58
2022/08/08 07:51:50;;;;;;;7.88;7.15;;;;;;;44.48;22.17;99439.63;5091873;28;20190;-57
2022/08/08 07:54:29;;;;;;;8.90;8.07;;;;;;;44.21;21.94;99446.31;5091631;28;20306;-59
2022/08/08 07:57:05;;;;;;;9.52;6.53;;;;;;;44.00;22.19;99435.28;5091495;28;20225;-58
2022/08/08 07:59:41;;;;;;;9.38;5.70;;;;;;;44.54;22.56;99448.72;5091782;28;20202;-58
2022/08/08 08:02:08;;;;;;;15.43;7.70;;;;;;;44.71;21.59;99451.22;5091189;28;21048;-58
2022/08/08 08:04:43;;;;;;;6.88;6.28;;;;;;;44.80;21.31;99435.97;5091342;28;20210;-58
2022/08/08 08:07:11;;;;;;;6.13;5.63;;;;;;;44.69;21.55;99437.00;5091604;28;20717;-57
2022/08/08 08:09:40;;;;;;;6.32;5.82;;;;;;;44.88;21.28;99438.16;5091323;28;20681;-58
2022/08/08 08:12:11;;;;;;;5.47;4.80;;;;;;;44.47;21.22;99437.19;5091241;28;20190;-57
2022/08/08 08:14:50;;;;;;;6.03;5.00;;;;;;;43.53;21.86;99431.59;5091082;28;20670;-59
2022/08/08 08:17:19;;;;;;;6.55;5.85;;;;;;;43.24;22.79;99429.13;5098353;28;20586;-59
2022/08/08 08:19:50;;;;;;;5.10;4.50;;;;;;;42.55;23.49;99425.38;5102115;28;20665;-58
2022/08/08 08:22:17;;;;;;;5.45;4.80;;;;;;;42.67;23.75;99417.84;5101288;28;20224;-58
2022/08/08 08:24:44;;;;;;;6.45;5.80;;;;;;;42.64;22.94;99421.09;5101456;28;20246;-58
2022/08/08 08:27:13;;;;;;;5.10;4.70;;;;;;;42.59;22.80;99418.28;5091298;28;20788;-58
2022/08/08 08:29:39;;;;;;;5.38;4.63;;;;;;;42.64;22.98;99423.81;5090408;28;20204;-58
2022/08/08 08:32:07;;;;;;;5.03;4.57;;;;;;;41.97;22.69;99403.03;5091667;28;20278;-58
2022/08/08 08:34:35;;;;;;;5.15;4.70;;;;;;;42.09;22.94;99411.09;5094302;28;20190;-58
2022/08/08 08:37:03;;;;;;;5.10;4.63;;;;;;;42.14;22.55;99415.78;5094402;28;20684;-58
2022/08/08 08:39:30;;;;;;;8.15;4.70;;;;;;;42.29;21.98;99419.53;5091507;28;20286;-58
2022/08/08 08:41:58;;;;;;;4.45;4.15;;;;;;;42.36;22.44;99411.16;5109827;28;20322;-59
2022/08/08 08:44:28;;;;;;;4.25;3.85;;;;;;;42.36;21.99;99411.16;5111851;28;20190;-59
2022/08/08 08:46:56;;;;;;;3.80;3.60;;;;;;;41.92;21.21;99407.53;5111859;28;20205;-59
2022/08/08 08:49:23;;;;;;;3.90;3.70;;;;;;;41.92;21.43;99410.25;5111790;28;20293;-58
2022/08/08 08:51:52;;;;;;;6.97;3.60;;;;;;;41.67;22.14;99402.53;5111619;28;20194;-58
2022/08/08 08:54:21;;;;;;;5.35;3.70;;;;;;;41.29;21.95;99412.25;5111769;28;20189;-58
2022/08/08 08:56:49;;;;;;;4.38;4.07;;;;;;;40.92;22.79;99400.94;5111760;28;20190;-58
2022/08/08 08:59:17;;;;;;;4.70;4.30;;;;;;;40.74;23.40;99398.44;5111673;28;20198;-59
2022/08/08 09:01:50;;;;;;;6.85;4.47;;;;;;;40.98;23.02;99394.50;5111575;28;20675;-59
2022/08/08 09:04:21;;;;;;;5.80;3.90;;;;;;;41.23;22.84;99390.59;5111501;28;20201;-59
2022/08/08 09:06:52;;;;;;;6.78;4.28;;;;;;;41.23;22.85;99387.88;5102179;28;20205;-59
2022/08/08 09:09:24;;;;;;;4.65;4.35;;;;;;;41.41;23.32;99374.03;5091394;28;20199;-59
2022/08/08 09:11:53;;;;;;;4.47;4.10;;;;;;;41.63;22.71;99385.88;5091288;28;20205;-60
2022/08/08 09:14:22;;;;;;;4.20;3.85;;;;;;;40.13;23.31;99379.97;5091178;28;20222;-59
2022/08/08 09:16:52;;;;;;;5.28;3.70;;;;;;;40.02;22.81;99369.94;5090978;28;20206;-59
2022/08/08 09:19:19;;;;;;;4.15;3.85;;;;;;;40.03;22.30;99372.41;5090989;28;20193;-59
2022/08/08 09:21:47;;;;;;;4.05;3.63;;;;;;;40.13;22.44;99369.91;5091007;28;20609;-58
2022/08/08 09:24:14;;;;;;;5.80;3.15;;;;;;;40.22;22.40;99373.09;5090896;28;20201;-58
2022/08/08 09:26:45;;;;;;;4.70;4.10;;;;;;;40.15;22.88;99367.78;5090606;28;20202;-58
2022/08/08 09:29:20;;;;;;;4.30;4.00;;;;;;;39.67;23.19;99370.75;5090709;28;20281;-60
2022/08/08 09:31:55;;;;;;;5.70;4.70;;;;;;;40.10;23.01;99375.00;5090579;28;20205;-62
2022/08/08 09:34:25;;;;;;;8.27;3.83;;;;;;;40.22;22.63;99360.31;5090665;28;20281;-60
2022/08/08 09:37:01;;;;;;;4.30;3.88;;;;;;;40.14;23.22;99359.88;5090689;28;20228;-58
2022/08/08 09:39:31;;;;;;;3.85;3.65;;;;;;;40.25;23.18;99361.72;5090519;28;20209;-61
2022/08/08 09:42:02;;;;;;;6.50;3.65;;;;;;;40.32;22.63;99357.00;5090064;28;20237;-61
2022/08/08 09:44:44;;;;;;;4.28;3.97;;;;;;;39.76;23.39;99353.03;5090461;28;20195;-59
2022/08/08 09:47:14;;;;;;;4.13;3.83;;;;;;;39.18;23.83;99344.81;5091652;28;20281;-59
2022/08/08 09:49:45;;;;;;;7.03;4.20;;;;;;;39.34;23.67;99344.13;5098653;28;20291;-59
2022/08/08 09:52:16;;;;;;;4.32;4.05;;;;;;;39.00;24.11;99343.00;5100119;28;20201;-58
2022/08/08 09:54:44;;;;;;;5.18;3.90;;;;;;;39.00;23.68;99323.19;5095330;28;20289;-59
2022/08/08 09:57:15;;;;;;;3.78;3.50;;;;;;;39.59;23.03;99346.66;5090218;28;20282;-59
2022/08/08 09:59:43;;;;;;;4.03;3.72;;;;;;;40.20;23.08;99337.97;5095315;28;20194;-58
2022/08/08 10:02:19;;;;;;;4.78;3.47;;;;;;;40.09;22.45;99348.88;5090195;28;20225;-59
2022/08/08 10:04:47;;;;;;;5.13;3.60;;;;;;;39.29;23.65;99344.00;5090189;28;20198;-57
2022/08/08 10:07:15;;;;;;;5.25;4.10;;;;;;;39.28;22.94;99347.78;5089888;28;20195;-59
2022/08/08 10:09:42;;;;;;;4.68;4.28;;;;;;;38.27;23.63;99326.84;5089584;28;20678;-58
2022/08/08 10:12:10;;;;;;;7.03;4.40;;;;;;;38.19;24.20;99329.88;5089958;28;20205;-60
2022/08/08 10:14:38;;;;;;;6.03;3.78;;;;;;;37.45;24.64;99325.44;5090266;28;20598;-58
2022/08/08 10:17:07;;;;;;;3.90;3.53;;;;;;;37.60;24.96;99322.34;5090179;28;20194;-58
2022/08/08 10:19:37;;;;;;;4.10;3.70;;;;;;;37.97;23.94;99313.22;5089621;28;20294;-60
2022/08/08 10:22:05;;;;;;;6.95;3.75;;;;;;;38.15;24.01;99323.28;5089953;28;20230;-59
2022/08/08 10:24:34;;;;;;;5.20;3.50;;;;;;;38.48;23.11;99317.44;5089715;28;20282;-59
2022/08/08 10:27:02;;;;;;;6.03;3.50;;;;;;;38.64;23.06;99322.22;5089648;28;20256;-59
2022/08/08 10:29:40;;;;;;;3.70;3.22;;;;;;;38.14;23.67;99311.59;5089862;28;20731;-59
2022/08/08 10:34:59;;;;;;;5.13;3.53;;;;;;;37.22;25.20;99312.50;5090031;28;20218;-58
2022/08/08 10:37:27;;;;;;;3.92;3.33;;;;;;;36.85;24.44;99308.78;5089992;28;20684;-59
2022/08/08 10:39:55;;;;;;;3.88;3.20;;;;;;;36.47;24.77;99295.25;5089657;28;20191;-58
2022/08/08 10:42:24;;;;;;;9.48;3.35;;;;;;;36.72;25.09;99298.06;5089366;28;20227;-58
2022/08/08 10:45:00;;;;;;;9.75;3.63;;;;;;;36.62;24.86;99298.50;5089611;28;20206;-58
2022/08/08 10:47:27;;;;;;;4.93;3.30;;;;;;;36.51;24.85;99303.78;5089605;28;20195;-59
2022/08/08 10:49:57;;;;;;;3.92;3.30;;;;;;;36.13;25.11;99285.63;5089828;28;20653;-59
2022/08/08 10:52:28;;;;;;;10.15;3.13;;;;;;;36.19;24.81;99279.38;5089575;28;20672;-59
2022/08/08 10:54:56;;;;;;;5.97;3.55;;;;;;;36.03;25.17;99283.38;5089545;28;20199;-59
2022/08/08 10:57:23;;;;;;;8.32;3.38;;;;;;;35.50;25.97;99271.06;5089489;28;20203;-59
2022/08/08 10:59:52;;;;;;;3.70;3.40;;;;;;;35.56;25.88;99265.63;5089385;28;20202;-58
2022/08/08 11:02:24;;;;;;;4.90;3.20;;;;;;;35.71;26.03;99273.50;5089289;28;20219;-59
2022/08/08 11:04:51;;;;;;;3.90;3.50;;;;;;;35.82;25.89;99266.63;5089415;28;20202;-58
2022/08/08 11:07:31;;;;;;;6.47;3.90;;;;;;;35.83;25.51;99266.44;5089322;28;20587;-58
2022/08/08 11:10:01;;;;;;;5.75;3.30;;;;;;;35.76;25.79;99271.03;5089424;28;20199;-59
2022/08/08 11:12:29;;;;;;;3.95;3.53;;;;;;;35.83;26.11;99268.28;5089525;28;20665;-59
2022/08/08 11:14:58;;;;;;;3.95;3.25;;;;;;;35.84;25.77;99254.59;5089294;28;20234;-58
2022/08/08 11:17:27;;;;;;;4.88;2.85;;;;;;;35.68;24.91;99269.34;5089197;28;20195;-59
2022/08/08 11:19:54;;;;;;;4.47;3.22;;;;;;;35.46;25.21;99256.31;5089198;28;20687;-59
2022/08/08 11:22:26;;;;;;;4.80;3.20;;;;;;;35.39;25.25;99256.34;5091426;28;20229;-60
2022/08/08 11:25:00;;;;;;;5.13;2.97;;;;;;;34.88;25.56;99264.19;5093128;28;20195;-58
2022/08/08 11:27:30;;;;;;;7.25;3.33;;;;;;;34.73;26.12;99250.91;5093169;28;20191;-59
2022/08/08 11:29:59;;;;;;;5.45;3.70;;;;;;;34.66;26.14;99257.31;5093014;28;20199;-58
2022/08/08 11:32:29;;;;;;;4.22;3.92;;;;;;;34.72;26.71;99243.00;5092742;28;20283;-62
2022/08/08 11:35:04;;;;;;;5.15;3.83;;;;;;;34.63;26.14;99258.56;5092930;28;20202;-58
2022/08/08 11:37:32;;;;;;;3.40;3.10;;;;;;;34.73;26.22;99245.50;5093004;28;20206;-59
2022/08/08 11:40:01;;;;;;;6.22;2.83;;;;;;;34.72;26.23;99253.78;5092962;28;20233;-59
2022/08/08 11:42:29;;;;;;;4.13;2.78;;;;;;;34.72;26.58;99248.41;5092682;28;20716;-59
2022/08/08 11:44:57;;;;;;;7.38;3.38;;;;;;;34.77;26.15;99240.53;5092523;28;20278;-60
2022/08/08 11:47:25;;;;;;;3.42;3.17;;;;;;;34.77;26.39;99252.16;5092567;28;20325;-59
2022/08/08 11:49:54;;;;;;;5.13;3.50;;;;;;;34.54;25.59;99246.28;5092663;28;20199;-58
2022/08/08 11:52:22;;;;;;;6.72;3.30;;;;;;;34.49;25.54;99224.53;5092734;28;20599;-59
2022/08/08 11:54:49;;;;;;;3.67;3.13;;;;;;;34.71;25.20;99230.56;5092702;28;20326;-58
2022/08/08 11:57:23;;;;;;;6.10;3.10;;;;;;;34.90;25.60;99237.84;5092534;28;20578;-59
2022/08/08 11:59:56;;;;;;;4.35;3.13;;;;;;;34.83;25.36;99240.56;5092282;28;20225;-59
2022/08/08 12:02:25;;;;;;;9.50;2.97;;;;;;;34.87;25.12;99235.59;5097963;28;20670;-59